Time;durP1;ratioP1;P1;durP2;ratioP2;P2;SDS_P1;SDS_P2;PMS_P1;PMS_P2;Temp;Humidity;BMP_temperature;BMP_pressure;BME280_temperature;BME280_humidity;BME280_pressure;Samples;Min_cycle;Max_cycle;Signal;HPM_P1;HPM_P2
2022/03/07 00:01:26;;;;;;;8.57;4.97;;;;;;;;;;5301845;28;20020;-67
2022/03/07 00:03:58;;;;;;;7.07;4.60;;;;;;;;;;5300537;28;20344;-67
2022/03/07 00:06:29;;;;;;;9.13;5.50;;;;;;;;;;5301927;28;20498;-68
2022/03/07 00:09:00;;;;;;;8.67;5.33;;;;;;;;;;5301717;28;20016;-66
2022/03/07 00:11:31;;;;;;;10.00;5.63;;;;;;;;;;5300416;28;20490;-67
2022/03/07 00:14:03;;;;;;;10.90;5.50;;;;;;;;;;5301665;28;20012;-67
2022/03/07 00:16:34;;;;;;;11.03;5.60;;;;;;;;;;5301573;28;20039;-67
2022/03/07 00:19:06;;;;;;;7.77;5.70;;;;;;;;;;5302381;28;20024;-67
2022/03/07 00:21:37;;;;;;;8.37;5.80;;;;;;;;;;5305230;28;20040;-68
2022/03/07 00:24:08;;;;;;;11.47;6.17;;;;;;;;;;5305061;28;20132;-67
2022/03/07 00:26:39;;;;;;;9.40;5.40;;;;;;;;;;5304498;28;20316;-68
2022/03/07 00:29:11;;;;;;;12.35;6.13;;;;;;;;;;5305195;28;20379;-67
2022/03/07 00:31:42;;;;;;;10.83;6.07;;;;;;;;;;5304287;28;20094;-68
2022/03/07 00:34:14;;;;;;;9.04;5.78;;;;;;;;;;5304918;28;20035;-67
2022/03/07 00:36:45;;;;;;;11.40;5.73;;;;;;;;;;5304457;28;20020;-68
2022/03/07 00:39:16;;;;;;;9.77;6.20;;;;;;;;;;5304582;28;20015;-67
2022/03/07 00:41:47;;;;;;;11.77;6.03;;;;;;;;;;5304658;28;20070;-67
2022/03/07 00:44:19;;;;;;;8.33;5.37;;;;;;;;;;5304946;28;20119;-67
2022/03/07 00:46:50;;;;;;;12.30;6.80;;;;;;;;;;5303601;28;20470;-67
2022/03/07 00:49:21;;;;;;;8.18;6.40;;;;;;;;;;5305003;28;20024;-67
2022/03/07 00:51:52;;;;;;;8.87;5.27;;;;;;;;;;5304192;28;20533;-67
2022/03/07 00:54:23;;;;;;;9.90;6.04;;;;;;;;;;5304255;28;20018;-67
2022/03/07 00:56:54;;;;;;;11.45;6.07;;;;;;;;;;5304180;28;20070;-68
2022/03/07 00:59:26;;;;;;;9.55;5.35;;;;;;;;;;5303732;28;20020;-68
2022/03/07 01:01:57;;;;;;;9.07;6.10;;;;;;;;;;5304007;28;20531;-67
2022/03/07 01:04:28;;;;;;;10.77;6.83;;;;;;;;;;5304539;28;20017;-67
2022/03/07 01:06:59;;;;;;;9.60;5.83;;;;;;;;;;5303272;28;20436;-69
2022/03/07 01:09:30;;;;;;;11.97;7.20;;;;;;;;;;5304361;28;20088;-68
2022/03/07 01:12:02;;;;;;;8.48;6.50;;;;;;;;;;5303796;28;20143;-68
2022/03/07 01:14:33;;;;;;;11.00;6.23;;;;;;;;;;5303622;28;20442;-68
2022/03/07 01:17:04;;;;;;;8.90;6.30;;;;;;;;;;5304196;28;20023;-68
2022/03/07 01:19:36;;;;;;;11.40;5.80;;;;;;;;;;5304131;28;20028;-68
2022/03/07 01:22:07;;;;;;;8.30;5.60;;;;;;;;;;5303149;28;20059;-68
2022/03/07 01:24:38;;;;;;;8.98;5.72;;;;;;;;;;5304278;28;20470;-68
2022/03/07 01:27:09;;;;;;;10.30;5.77;;;;;;;;;;5304011;28;20486;-68
2022/03/07 01:29:40;;;;;;;8.27;5.87;;;;;;;;;;5303193;28;20024;-67
2022/03/07 01:32:12;;;;;;;7.53;5.40;;;;;;;;;;5303620;28;20067;-67
2022/03/07 01:34:43;;;;;;;8.47;5.63;;;;;;;;;;5302999;28;20016;-68
2022/03/07 01:37:14;;;;;;;11.37;6.53;;;;;;;;;;5303683;28;20053;-68
2022/03/07 01:39:45;;;;;;;12.00;6.13;;;;;;;;;;5303286;28;20550;-68
2022/03/07 01:42:16;;;;;;;10.68;5.38;;;;;;;;;;5303193;28;20494;-68
2022/03/07 01:44:47;;;;;;;8.20;5.13;;;;;;;;;;5303187;28;20020;-67
2022/03/07 01:47:19;;;;;;;7.37;5.53;;;;;;;;;;5303565;28;20026;-68
2022/03/07 01:49:52;;;;;;;10.13;5.90;;;;;;;;;;5302546;28;20467;-67
2022/03/07 01:52:23;;;;;;;8.33;5.47;;;;;;;;;;5303442;28;20024;-67
2022/03/07 01:54:55;;;;;;;6.83;5.53;;;;;;;;;;5303108;28;20384;-67
2022/03/07 01:57:27;;;;;;;8.27;5.63;;;;;;;;;;5302759;28;20107;-67
2022/03/07 01:59:58;;;;;;;6.60;5.07;;;;;;;;;;5302806;28;20042;-68
2022/03/07 02:02:29;;;;;;;6.65;4.82;;;;;;;;;;5303381;28;20024;-68
2022/03/07 02:05:00;;;;;;;7.93;5.07;;;;;;;;;;5302523;28;20020;-67
2022/03/07 02:07:32;;;;;;;9.73;5.87;;;;;;;;;;5303028;28;20049;-68
2022/03/07 02:10:03;;;;;;;8.68;5.50;;;;;;;;;;5302244;28;20028;-67
2022/03/07 02:12:35;;;;;;;8.50;5.77;;;;;;;;;;5302561;28;20487;-68
2022/03/07 02:15:07;;;;;;;9.70;5.83;;;;;;;;;;5302877;28;20020;-68
2022/03/07 02:17:43;;;;;;;12.47;6.13;;;;;;;;;;5302158;28;20012;-68
2022/03/07 02:20:15;;;;;;;11.53;6.23;;;;;;;;;;5302670;28;20051;-68
2022/03/07 02:22:46;;;;;;;9.73;5.63;;;;;;;;;;5302313;28;20012;-68
2022/03/07 02:25:17;;;;;;;8.60;5.97;;;;;;;;;;5302614;28;20022;-68
2022/03/07 02:27:49;;;;;;;10.20;6.15;;;;;;;;;;5302439;28;20040;-68
2022/03/07 02:30:20;;;;;;;8.70;6.10;;;;;;;;;;5303070;28;20399;-69
2022/03/07 02:32:51;;;;;;;11.10;6.57;;;;;;;;;;5301563;28;20031;-68
2022/03/07 02:35:22;;;;;;;10.27;6.57;;;;;;;;;;5302811;28;20099;-68
2022/03/07 02:37:53;;;;;;;10.98;6.60;;;;;;;;;;5301689;28;20032;-67
2022/03/07 02:40:24;;;;;;;13.13;6.75;;;;;;;;;;5302824;28;20012;-67
2022/03/07 02:42:56;;;;;;;7.60;6.77;;;;;;;;;;5301930;28;20085;-67
2022/03/07 02:45:27;;;;;;;10.82;7.03;;;;;;;;;;5301784;28;20020;-68
2022/03/07 02:47:58;;;;;;;11.17;7.07;;;;;;;;;;5301932;28;20447;-68
2022/03/07 02:50:29;;;;;;;11.10;7.67;;;;;;;;;;5302382;28;20059;-68
2022/03/07 02:53:00;;;;;;;12.93;7.47;;;;;;;;;;5301258;28;20455;-67
2022/03/07 02:55:32;;;;;;;13.77;7.77;;;;;;;;;;5302283;28;20417;-67
2022/03/07 02:58:03;;;;;;;10.97;7.60;;;;;;;;;;5302176;28;20401;-68
2022/03/07 03:00:35;;;;;;;11.47;7.57;;;;;;;;;;5301593;28;20024;-68
2022/03/07 03:03:06;;;;;;;12.13;8.13;;;;;;;;;;5302353;28;20065;-68
2022/03/07 03:05:37;;;;;;;10.30;7.63;;;;;;;;;;5302272;28;20035;-68
2022/03/07 03:08:08;;;;;;;12.73;7.78;;;;;;;;;;5301306;28;20031;-68
2022/03/07 03:10:39;;;;;;;11.03;7.50;;;;;;;;;;5301559;28;20051;-68
2022/03/07 03:13:10;;;;;;;14.37;7.70;;;;;;;;;;5301288;28;20497;-68
2022/03/07 03:15:42;;;;;;;10.38;8.38;;;;;;;;;;5302067;28;20090;-67
2022/03/07 03:18:13;;;;;;;11.87;8.03;;;;;;;;;;5301916;28;20016;-68
2022/03/07 03:20:45;;;;;;;12.93;8.03;;;;;;;;;;5301028;28;20020;-68
2022/03/07 03:23:17;;;;;;;11.63;7.50;;;;;;;;;;5302253;28;20020;-68
2022/03/07 03:25:48;;;;;;;14.17;8.77;;;;;;;;;;5301911;28;20095;-68
2022/03/07 03:28:19;;;;;;;10.50;7.90;;;;;;;;;;5301622;28;20035;-68
2022/03/07 03:30:51;;;;;;;12.90;8.50;;;;;;;;;;5301499;28;20012;-68
2022/03/07 03:33:22;;;;;;;9.30;8.07;;;;;;;;;;5302082;28;20108;-68
2022/03/07 03:35:53;;;;;;;12.17;8.30;;;;;;;;;;5300734;28;20016;-68
2022/03/07 03:38:25;;;;;;;11.43;8.95;;;;;;;;;;5302282;28;20024;-68
2022/03/07 03:40:56;;;;;;;12.18;8.80;;;;;;;;;;5301667;28;20574;-67
2022/03/07 03:43:27;;;;;;;11.43;7.57;;;;;;;;;;5301443;28;20020;-68
2022/03/07 03:45:58;;;;;;;11.57;8.53;;;;;;;;;;5301428;28;20016;-68
2022/03/07 03:48:29;;;;;;;14.38;8.50;;;;;;;;;;5301191;28;20788;-68
2022/03/07 03:51:00;;;;;;;11.30;8.20;;;;;;;;;;5301762;28;20020;-68
2022/03/07 03:53:31;;;;;;;12.60;8.83;;;;;;;;;;5302535;28;20047;-67
2022/03/07 03:56:03;;;;;;;11.48;8.55;;;;;;;;;;5304983;28;20459;-68
2022/03/07 03:58:34;;;;;;;13.67;8.47;;;;;;;;;;5305816;28;20089;-67
2022/03/07 04:01:05;;;;;;;13.40;8.53;;;;;;;;;;5305867;28;20020;-67
2022/03/07 04:03:36;;;;;;;12.65;9.18;;;;;;;;;;5304931;28;20515;-67
2022/03/07 04:06:08;;;;;;;10.13;8.82;;;;;;;;;;5305668;28;20016;-68
2022/03/07 04:08:49;;;;;;;15.43;9.17;;;;;;;;;;5305487;28;20023;-67
2022/03/07 04:11:21;;;;;;;14.97;10.10;;;;;;;;;;5304680;28;20044;-67
2022/03/07 04:13:52;;;;;;;14.67;9.53;;;;;;;;;;5305086;28;20035;-67
2022/03/07 04:16:23;;;;;;;12.43;9.40;;;;;;;;;;5304913;28;20028;-69
2022/03/07 04:18:54;;;;;;;15.48;9.38;;;;;;;;;;5304984;28;20020;-67
2022/03/07 04:21:26;;;;;;;15.17;8.87;;;;;;;;;;5305411;28;20035;-67
2022/03/07 04:23:57;;;;;;;13.53;9.10;;;;;;;;;;5304304;28;20032;-67
2022/03/07 04:26:28;;;;;;;12.63;9.13;;;;;;;;;;5305381;28;20023;-67
2022/03/07 04:29:00;;;;;;;12.27;8.93;;;;;;;;;;5304857;28;20488;-66
2022/03/07 04:31:32;;;;;;;12.53;8.53;;;;;;;;;;5304116;28;20035;-67
2022/03/07 04:34:03;;;;;;;16.13;9.17;;;;;;;;;;5305141;28;20012;-67
2022/03/07 04:36:35;;;;;;;12.43;9.20;;;;;;;;;;5305233;28;20032;-68
2022/03/07 04:39:07;;;;;;;17.90;8.53;;;;;;;;;;5304567;28;20027;-67
2022/03/07 04:41:39;;;;;;;13.37;10.30;;;;;;;;;;5304997;28;20035;-67
2022/03/07 04:44:11;;;;;;;13.67;9.43;;;;;;;;;;5304998;28;20104;-67
2022/03/07 04:46:42;;;;;;;11.03;8.77;;;;;;;;;;5304019;28;20036;-67
2022/03/07 04:49:14;;;;;;;11.90;9.00;;;;;;;;;;5304982;28;20031;-67
2022/03/07 04:51:46;;;;;;;19.80;9.73;;;;;;;;;;5303918;28;20090;-67
2022/03/07 04:54:18;;;;;;;12.77;10.07;;;;;;;;;;5304990;28;20012;-67
2022/03/07 04:56:51;;;;;;;16.03;10.30;;;;;;;;;;5304311;28;20066;-68
2022/03/07 04:59:23;;;;;;;17.77;10.17;;;;;;;;;;5304479;28;20036;-68
2022/03/07 05:01:54;;;;;;;14.35;9.70;;;;;;;;;;5304227;28;20024;-68
2022/03/07 05:04:25;;;;;;;12.95;9.48;;;;;;;;;;5304594;28;20107;-68
2022/03/07 05:06:56;;;;;;;17.37;9.50;;;;;;;;;;5303628;28;20016;-68
2022/03/07 05:09:27;;;;;;;14.53;9.77;;;;;;;;;;5304602;28;20012;-68
2022/03/07 05:11:59;;;;;;;17.95;9.27;;;;;;;;;;5303835;28;20052;-68
2022/03/07 05:14:30;;;;;;;14.10;10.70;;;;;;;;;;5303731;28;20051;-67
2022/03/07 05:17:01;;;;;;;14.27;10.13;;;;;;;;;;5304715;28;20019;-68
2022/03/07 05:19:32;;;;;;;13.17;10.07;;;;;;;;;;5304345;28;20122;-68
2022/03/07 05:22:03;;;;;;;12.63;9.93;;;;;;;;;;5303484;28;20441;-68
2022/03/07 05:24:34;;;;;;;13.13;10.10;;;;;;;;;;5304442;28;20016;-67
2022/03/07 05:27:06;;;;;;;13.10;9.30;;;;;;;;;;5303333;28;20031;-68
2022/03/07 05:29:37;;;;;;;17.77;9.77;;;;;;;;;;5303942;28;20020;-68
2022/03/07 05:32:08;;;;;;;17.17;9.87;;;;;;;;;;5303841;28;20036;-68
2022/03/07 05:34:39;;;;;;;14.20;9.98;;;;;;;;;;5303115;28;20367;-68
2022/03/07 05:37:10;;;;;;;15.43;10.57;;;;;;;;;;5304002;28;20020;-68
2022/03/07 05:39:42;;;;;;;17.40;10.40;;;;;;;;;;5303901;28;20020;-69
2022/03/07 05:42:13;;;;;;;14.57;10.33;;;;;;;;;;5303018;28;20035;-68
2022/03/07 05:44:44;;;;;;;18.70;10.13;;;;;;;;;;5303311;28;20063;-68
2022/03/07 05:47:15;;;;;;;18.88;11.90;;;;;;;;;;5304173;28;20108;-68
2022/03/07 05:49:46;;;;;;;13.67;10.13;;;;;;;;;;5302834;28;20048;-67
2022/03/07 05:52:17;;;;;;;14.80;11.15;;;;;;;;;;5303826;28;20051;-68
2022/03/07 05:54:49;;;;;;;15.13;10.60;;;;;;;;;;5302462;28;20040;-67
2022/03/07 05:57:20;;;;;;;13.67;9.97;;;;;;;;;;5303584;28;20098;-68
2022/03/07 05:59:51;;;;;;;14.63;10.02;;;;;;;;;;5303011;28;20451;-67
2022/03/07 06:02:22;;;;;;;17.02;10.18;;;;;;;;;;5303019;28;20024;-67
2022/03/07 06:04:53;;;;;;;16.25;10.48;;;;;;;;;;5302818;28;20016;-68
2022/03/07 06:07:25;;;;;;;15.03;11.30;;;;;;;;;;5303330;28;20498;-68
2022/03/07 06:09:56;;;;;;;15.93;11.70;;;;;;;;;;5302054;28;20082;-68
2022/03/07 06:12:27;;;;;;;18.97;11.10;;;;;;;;;;5303053;28;20069;-68
2022/03/07 06:15:03;;;;;;;14.93;11.20;;;;;;;;;;5302937;28;20012;-68
2022/03/07 06:17:35;;;;;;;17.83;11.63;;;;;;;;;;5301506;28;20028;-68
2022/03/07 06:20:06;;;;;;;17.73;12.43;;;;;;;;;;5302896;28;20412;-68
2022/03/07 06:22:37;;;;;;;20.33;11.53;;;;;;;;;;5302884;28;20541;-68
2022/03/07 06:25:08;;;;;;;16.80;11.63;;;;;;;;;;5302346;28;20043;-68
2022/03/07 06:27:39;;;;;;;21.30;13.63;;;;;;;;;;5302690;28;20016;-68
2022/03/07 06:30:11;;;;;;;21.70;15.15;;;;;;;;;;5302024;28;20019;-68
2022/03/07 06:32:42;;;;;;;16.47;12.77;;;;;;;;;;5302499;28;20089;-68
2022/03/07 06:35:14;;;;;;;17.87;11.60;;;;;;;;;;5302736;28;20112;-68
2022/03/07 06:37:49;;;;;;;16.87;12.67;;;;;;;;;;5301633;28;20040;-68
2022/03/07 06:40:21;;;;;;;20.60;12.33;;;;;;;;;;5302452;28;20023;-68
2022/03/07 06:42:52;;;;;;;19.87;11.63;;;;;;;;;;5302202;28;20036;-68
2022/03/07 06:45:23;;;;;;;16.40;11.10;;;;;;;;;;5301922;28;20016;-68
2022/03/07 06:47:54;;;;;;;18.63;11.67;;;;;;;;;;5302382;28;20410;-67
2022/03/07 06:50:26;;;;;;;18.88;11.20;;;;;;;;;;5302554;28;20099;-68
2022/03/07 06:52:58;;;;;;;18.43;11.97;;;;;;;;;;5301164;28;20028;-69
2022/03/07 06:55:29;;;;;;;15.50;11.43;;;;;;;;;;5302225;28;20099;-68
2022/03/07 06:58:00;;;;;;;15.80;11.60;;;;;;;;;;5302008;28;20027;-68
2022/03/07 07:00:32;;;;;;;15.95;11.77;;;;;;;;;;5301453;28;20067;-68
2022/03/07 07:03:03;;;;;;;15.33;11.77;;;;;;;;;;5302213;28;20028;-68
2022/03/07 07:05:35;;;;;;;19.63;10.60;;;;;;;;;;5301300;28;20077;-67
2022/03/07 07:08:06;;;;;;;12.47;8.67;;;;;;;;;;5301998;28;20086;-68
2022/03/07 07:10:38;;;;;;;13.60;8.00;;;;;;;;;;5301716;28;20051;-68
2022/03/07 07:13:14;;;;;;;9.53;7.67;;;;;;;;;;5300954;28;20036;-68
2022/03/07 07:15:45;;;;;;;12.97;6.47;;;;;;;;;;5301658;28;20028;-68
2022/03/07 07:18:16;;;;;;;9.10;6.47;;;;;;;;;;5302224;28;20030;-68
2022/03/07 07:20:50;;;;;;;11.44;6.16;;;;;;;;;;5300804;28;20451;-68
2022/03/07 07:23:22;;;;;;;9.60;6.07;;;;;;;;;;5302314;28;20493;-68
2022/03/07 07:25:54;;;;;;;12.68;6.10;;;;;;;;;;5301572;28;20099;-68
2022/03/07 07:28:25;;;;;;;8.43;5.35;;;;;;;;;;5303804;28;20036;-68
2022/03/07 07:30:56;;;;;;;10.10;6.10;;;;;;;;;;5305827;28;20099;-68
2022/03/07 07:33:27;;;;;;;8.90;6.35;;;;;;;;;;5305362;28;20348;-68
2022/03/07 07:35:58;;;;;;;8.32;6.28;;;;;;;;;;5305603;28;20024;-68
2022/03/07 07:38:29;;;;;;;6.74;5.92;;;;;;;;;;5305935;28;20035;-68
2022/03/07 07:41:01;;;;;;;9.80;5.98;;;;;;;;;;5305202;28;20016;-68
2022/03/07 07:43:33;;;;;;;8.40;6.25;;;;;;;;;;5305810;28;20082;-68
2022/03/07 07:46:04;;;;;;;11.07;6.97;;;;;;;;;;5306034;28;20016;-68
2022/03/07 07:48:35;;;;;;;8.45;5.80;;;;;;;;;;5305335;28;20020;-69
2022/03/07 07:51:06;;;;;;;9.38;6.55;;;;;;;;;;5305777;28;20024;-67
2022/03/07 07:53:37;;;;;;;9.23;6.38;;;;;;;;;;5305763;28;20520;-68
2022/03/07 07:56:09;;;;;;;9.90;6.35;;;;;;;;;;5304857;28;20024;-67
2022/03/07 07:58:40;;;;;;;13.65;7.00;;;;;;;;;;5305516;28;20020;-68
2022/03/07 08:01:11;;;;;;;7.88;5.85;;;;;;;;;;5305615;28;20479;-68
2022/03/07 08:03:43;;;;;;;9.96;5.90;;;;;;;;;;5304635;28;20028;-68
2022/03/07 08:06:14;;;;;;;7.72;5.00;;;;;;;;;;5305481;28;20466;-68
2022/03/07 08:08:45;;;;;;;8.32;5.60;;;;;;;;;;5304242;28;20028;-68
2022/03/07 08:11:16;;;;;;;10.00;5.93;;;;;;;;;;5305469;28;20078;-68
2022/03/07 08:13:48;;;;;;;7.53;5.03;;;;;;;;;;5305090;28;20451;-68
2022/03/07 08:16:20;;;;;;;9.60;5.30;;;;;;;;;;5304711;28;20138;-68
2022/03/07 08:18:51;;;;;;;9.00;4.53;;;;;;;;;;5304879;28;20023;-68
2022/03/07 08:21:25;;;;;;;10.20;4.88;;;;;;;;;;5305412;28;20379;-68
2022/03/07 08:23:56;;;;;;;8.40;4.57;;;;;;;;;;5304111;28;20035;-68
2022/03/07 08:26:27;;;;;;;8.27;4.78;;;;;;;;;;5318261;28;20408;-68
2022/03/07 08:28:59;;;;;;;5.38;4.53;;;;;;;;;;5325050;28;20076;-68
2022/03/07 08:31:30;;;;;;;7.10;4.28;;;;;;;;;;5324855;28;20374;-67
2022/03/07 08:34:01;;;;;;;8.00;4.53;;;;;;;;;;5325882;28;20028;-67
2022/03/07 08:36:32;;;;;;;7.90;5.15;;;;;;;;;;5325255;28;20415;-67
2022/03/07 08:39:03;;;;;;;11.07;4.85;;;;;;;;;;5325117;28;20026;-67
2022/03/07 08:41:35;;;;;;;7.63;5.15;;;;;;;;;;5315270;28;20031;-67
2022/03/07 08:44:06;;;;;;;7.45;4.45;;;;;;;;;;5305072;28;20484;-67
2022/03/07 08:46:39;;;;;;;6.97;4.88;;;;;;;;;;5325699;28;20062;-67
2022/03/07 08:49:10;;;;;;;8.20;4.55;;;;;;;;;;5325669;28;20524;-67
2022/03/07 08:51:43;;;;;;;6.08;5.04;;;;;;;;;;5325144;28;20028;-68
2022/03/07 08:54:14;;;;;;;6.25;4.65;;;;;;;;;;5325814;28;20068;-67
2022/03/07 08:56:46;;;;;;;7.18;4.72;;;;;;;;;;5325434;28;20015;-68
2022/03/07 08:59:17;;;;;;;8.40;4.80;;;;;;;;;;5325825;28;20073;-68
2022/03/07 09:01:48;;;;;;;5.65;4.15;;;;;;;;;;5325527;28;20382;-68
2022/03/07 09:04:20;;;;;;;6.66;4.14;;;;;;;;;;5326087;28;20043;-68
2022/03/07 09:06:52;;;;;;;7.85;4.82;;;;;;;;;;5302086;28;20016;-66
2022/03/07 09:09:23;;;;;;;5.38;3.95;;;;;;;;;;5304482;28;20374;-68
2022/03/07 09:11:54;;;;;;;9.02;3.75;;;;;;;;;;5302583;28;20040;-67
2022/03/07 09:14:25;;;;;;;7.65;4.43;;;;;;;;;;5303959;28;20051;-67
2022/03/07 09:16:57;;;;;;;11.30;4.00;;;;;;;;;;5303679;28;20024;-67
2022/03/07 09:19:28;;;;;;;8.00;4.30;;;;;;;;;;5303450;28;20012;-67
2022/03/07 09:21:59;;;;;;;5.65;3.15;;;;;;;;;;5303585;28;20016;-68
2022/03/07 09:24:30;;;;;;;5.57;4.03;;;;;;;;;;5304089;28;20070;-67
2022/03/07 09:27:02;;;;;;;3.92;2.67;;;;;;;;;;5303053;28;20028;-67
2022/03/07 09:29:33;;;;;;;6.22;3.28;;;;;;;;;;5303908;28;20352;-67
2022/03/07 09:32:05;;;;;;;5.50;3.05;;;;;;;;;;5303625;28;20043;-67
2022/03/07 09:34:37;;;;;;;6.82;2.58;;;;;;;;;;5303356;28;20016;-67
2022/03/07 09:37:10;;;;;;;6.30;2.30;;;;;;;;;;5303869;28;20097;-67
2022/03/07 09:39:41;;;;;;;6.82;2.15;;;;;;;;;;5303646;28;20033;-67
2022/03/07 09:42:12;;;;;;;4.20;2.80;;;;;;;;;;5302912;28;20367;-66
2022/03/07 09:44:43;;;;;;;3.05;2.00;;;;;;;;;;5303833;28;20031;-67
2022/03/07 09:47:15;;;;;;;4.60;2.10;;;;;;;;;;5302672;28;20063;-67
2022/03/07 09:49:46;;;;;;;4.47;2.15;;;;;;;;;;5303201;28;20464;-68
2022/03/07 09:52:17;;;;;;;3.55;1.95;;;;;;;;;;5302805;28;20479;-68
2022/03/07 09:54:48;;;;;;;4.55;1.85;;;;;;;;;;5302486;28;20071;-68
2022/03/07 09:57:19;;;;;;;3.38;1.75;;;;;;;;;;5303954;28;20031;-68
2022/03/07 09:59:50;;;;;;;2.83;1.50;;;;;;;;;;5303303;28;20008;-68
2022/03/07 10:02:24;;;;;;;4.38;1.50;;;;;;;;;;5302908;28;20020;-67
2022/03/07 10:04:59;;;;;;;4.38;1.55;;;;;;;;;;5303024;28;20270;-67
2022/03/07 10:07:30;;;;;;;8.70;2.13;;;;;;;;;;5303177;28;20051;-67
2022/03/07 10:10:03;;;;;;;3.50;1.70;;;;;;;;;;5302465;28;20048;-68
2022/03/07 10:12:42;;;;;;;5.43;2.08;;;;;;;;;;5302707;28;20047;-68
2022/03/07 10:15:15;;;;;;;3.42;1.85;;;;;;;;;;5302337;28;20133;-68
2022/03/07 10:17:48;;;;;;;2.90;1.45;;;;;;;;;;5302656;28;20468;-67
2022/03/07 10:20:21;;;;;;;7.22;2.15;;;;;;;;;;5303103;28;20040;-67
2022/03/07 10:22:53;;;;;;;3.17;1.75;;;;;;;;;;5301758;28;20125;-67
2022/03/07 10:25:26;;;;;;;2.40;1.33;;;;;;;;;;5302058;28;20020;-67
2022/03/07 10:27:59;;;;;;;3.40;1.50;;;;;;;;;;5302385;28;20060;-67
2022/03/07 10:30:31;;;;;;;3.72;1.20;;;;;;;;;;5301589;28;20467;-67
2022/03/07 10:33:05;;;;;;;3.75;1.48;;;;;;;;;;5302659;28;20463;-68
2022/03/07 10:35:36;;;;;;;3.15;1.20;;;;;;;;;;5302242;28;20387;-68
2022/03/07 10:38:08;;;;;;;5.38;1.92;;;;;;;;;;5301979;28;20028;-68
2022/03/07 10:40:41;;;;;;;3.10;1.52;;;;;;;;;;5302619;28;20135;-67
2022/03/07 10:43:13;;;;;;;2.78;1.40;;;;;;;;;;5302099;28;20012;-68
2022/03/07 10:45:49;;;;;;;2.50;1.23;;;;;;;;;;5302351;28;20023;-67
2022/03/07 10:48:21;;;;;;;3.40;1.48;;;;;;;;;;5302731;28;20046;-67
2022/03/07 10:50:53;;;;;;;3.28;1.50;;;;;;;;;;5301418;28;20016;-67
2022/03/07 10:53:25;;;;;;;2.92;1.23;;;;;;;;;;5302629;28;20039;-68
2022/03/07 10:55:57;;;;;;;2.47;1.20;;;;;;;;;;5302427;28;20020;-68
2022/03/07 10:58:28;;;;;;;3.65;1.48;;;;;;;;;;5302217;28;20470;-68
2022/03/07 11:01:00;;;;;;;4.80;1.52;;;;;;;;;;5302093;28;20032;-67
2022/03/07 11:03:33;;;;;;;6.68;1.80;;;;;;;;;;5301912;28;20024;-68
2022/03/07 11:06:04;;;;;;;3.00;1.70;;;;;;;;;;5301601;28;20471;-68
2022/03/07 11:08:36;;;;;;;2.92;1.88;;;;;;;;;;5302414;28;20066;-69
2022/03/07 11:11:07;;;;;;;3.42;1.67;;;;;;;;;;5301924;28;20044;-68
2022/03/07 11:13:41;;;;;;;5.75;1.55;;;;;;;;;;5301375;28;20048;-68
2022/03/07 11:16:12;;;;;;;4.68;1.90;;;;;;;;;;5302062;28;20024;-68
2022/03/07 11:18:46;;;;;;;4.72;1.67;;;;;;;;;;5301573;28;20049;-68
2022/03/07 11:21:18;;;;;;;5.43;2.00;;;;;;;;;;5302550;28;20042;-68
2022/03/07 11:23:49;;;;;;;3.97;1.90;;;;;;;;;;5301910;28;20036;-68
2022/03/07 11:26:23;;;;;;;5.18;2.15;;;;;;;;;;5301637;28;20019;-68
2022/03/07 11:28:57;;;;;;;7.53;1.85;;;;;;;;;;5301565;28;20020;-68
2022/03/07 11:31:32;;;;;;;6.38;2.08;;;;;;;;;;5299361;28;20017;-68
2022/03/07 11:34:08;;;;;;;3.13;1.77;;;;;;;;;;5300937;28;20502;-68
2022/03/07 11:36:45;;;;;;;5.05;1.60;;;;;;;;;;5302159;28;20012;-68
2022/03/07 11:39:28;;;;;;;7.70;2.38;;;;;;;;;;5302385;28;20020;-68
2022/03/07 11:42:12;;;;;;;6.93;1.80;;;;;;;;;;5301348;28;20027;-68
2022/03/07 11:44:44;;;;;;;4.50;2.22;;;;;;;;;;5301975;28;20028;-68
2022/03/07 11:47:17;;;;;;;4.05;2.05;;;;;;;;;;5301268;28;20066;-68
2022/03/07 11:49:58;;;;;;;6.15;1.90;;;;;;;;;;5305106;28;20016;-68
2022/03/07 11:52:29;;;;;;;6.22;1.58;;;;;;;;;;5301896;28;20179;-68
2022/03/07 11:55:02;;;;;;;4.57;1.92;;;;;;;;;;5300643;28;20028;-68
2022/03/07 11:57:35;;;;;;;16.30;2.30;;;;;;;;;;5301468;28;20062;-68
2022/03/07 12:00:12;;;;;;;4.43;2.15;;;;;;;;;;5301150;28;20099;-68
2022/03/07 12:02:45;;;;;;;4.85;1.80;;;;;;;;;;5300831;28;20028;-68
2022/03/07 12:05:20;;;;;;;6.30;2.20;;;;;;;;;;5301946;28;20101;-68
2022/03/07 12:07:52;;;;;;;4.40;2.13;;;;;;;;;;5300539;28;20016;-68
2022/03/07 12:10:23;;;;;;;4.82;2.40;;;;;;;;;;5301263;28;20103;-68
2022/03/07 12:13:03;;;;;;;3.67;2.08;;;;;;;;;;5301295;28;20487;-68
2022/03/07 12:15:44;;;;;;;3.47;1.90;;;;;;;;;;5303508;28;20051;-68
2022/03/07 12:18:16;;;;;;;8.65;2.88;;;;;;;;;;5305524;28;20027;-68
2022/03/07 12:20:58;;;;;;;5.38;2.22;;;;;;;;;;5304845;28;20018;-69
2022/03/07 12:23:30;;;;;;;7.20;2.42;;;;;;;;;;5301710;28;20063;-68
2022/03/07 12:26:04;;;;;;;5.65;2.75;;;;;;;;;;5305021;28;20488;-68
2022/03/07 12:28:45;;;;;;;5.47;2.72;;;;;;;;;;5305183;28;20016;-68
2022/03/07 12:31:16;;;;;;;5.50;3.00;;;;;;;;;;5305106;28;20024;-68
2022/03/07 12:33:48;;;;;;;3.20;2.30;;;;;;;;;;5305677;28;20395;-68
2022/03/07 12:36:22;;;;;;;5.45;3.17;;;;;;;;;;5307620;28;20022;-69
2022/03/07 12:38:55;;;;;;;6.15;2.50;;;;;;;;;;5304846;28;20059;-69
2022/03/07 12:41:28;;;;;;;5.20;2.53;;;;;;;;;;5305301;28;20016;-69
2022/03/07 12:44:00;;;;;;;7.20;2.72;;;;;;;;;;5304392;28;20020;-69
2022/03/07 12:46:31;;;;;;;3.83;2.30;;;;;;;;;;5305252;28;20018;-68
2022/03/07 12:49:03;;;;;;;4.30;2.40;;;;;;;;;;5305072;28;20104;-68
2022/03/07 12:51:34;;;;;;;3.28;2.74;;;;;;;;;;5304069;28;20028;-68
2022/03/07 12:54:05;;;;;;;8.80;3.17;;;;;;;;;;5304854;28;20022;-69
2022/03/07 12:56:40;;;;;;;5.56;2.60;;;;;;;;;;5304914;28;20463;-68
2022/03/07 12:59:12;;;;;;;7.70;2.85;;;;;;;;;;5304382;28;20524;-68
2022/03/07 13:01:49;;;;;;;4.93;3.10;;;;;;;;;;5304889;28;20100;-68
2022/03/07 13:04:22;;;;;;;6.68;2.83;;;;;;;;;;5304261;28;20058;-68
2022/03/07 13:06:55;;;;;;;4.40;2.80;;;;;;;;;;5304287;28;20020;-68
2022/03/07 13:09:27;;;;;;;5.15;2.38;;;;;;;;;;5304990;28;20417;-68
2022/03/07 13:12:02;;;;;;;3.95;2.58;;;;;;;;;;5303367;28;20044;-68
2022/03/07 13:14:34;;;;;;;5.35;2.80;;;;;;;;;;5304364;28;20035;-68
2022/03/07 13:17:12;;;;;;;3.70;2.17;;;;;;;;;;5304340;28;20059;-68
2022/03/07 13:19:44;;;;;;;3.75;2.25;;;;;;;;;;5303968;28;20428;-68
2022/03/07 13:22:15;;;;;;;4.93;2.83;;;;;;;;;;5304642;28;20098;-68
2022/03/07 13:24:50;;;;;;;5.22;2.33;;;;;;;;;;5302595;28;20098;-67
2022/03/07 13:27:22;;;;;;;4.03;2.70;;;;;;;;;;5302650;28;20044;-67
2022/03/07 13:30:07;;;;;;;5.00;2.25;;;;;;;;;;5303855;28;20066;-67
2022/03/07 13:32:42;;;;;;;5.75;2.63;;;;;;;;;;5303228;28;20024;-68
2022/03/07 13:35:21;;;;;;;5.63;2.22;;;;;;;;;;5304032;28;20470;-68
2022/03/07 13:37:52;;;;;;;3.70;2.60;;;;;;;;;;5302526;28;20024;-68
2022/03/07 13:40:25;;;;;;;5.82;2.13;;;;;;;;;;5302830;28;20483;-68
2022/03/07 13:42:56;;;;;;;6.35;2.55;;;;;;;;;;5302999;28;20304;-68
2022/03/07 13:45:33;;;;;;;6.18;2.55;;;;;;;;;;5304254;28;20095;-68
2022/03/07 13:48:08;;;;;;;4.32;2.30;;;;;;;;;;5302853;28;20501;-68
2022/03/07 13:50:48;;;;;;;2.63;2.05;;;;;;;;;;5303962;28;20095;-68
2022/03/07 13:53:20;;;;;;;4.57;2.63;;;;;;;;;;5303328;28;20036;-68
2022/03/07 13:55:55;;;;;;;3.80;2.22;;;;;;;;;;5303362;28;20019;-68
2022/03/07 13:58:29;;;;;;;5.40;2.00;;;;;;;;;;5303935;28;20024;-67
2022/03/07 14:01:07;;;;;;;3.90;2.17;;;;;;;;;;5302447;28;20031;-67
2022/03/07 14:03:38;;;;;;;4.45;2.17;;;;;;;;;;5303832;28;20052;-67
2022/03/07 14:06:16;;;;;;;4.90;2.17;;;;;;;;;;5303550;28;20055;-67
2022/03/07 14:08:47;;;;;;;4.22;2.03;;;;;;;;;;5301958;28;20016;-66
2022/03/07 14:11:19;;;;;;;4.55;1.98;;;;;;;;;;5303208;28;20165;-67
2022/03/07 14:13:54;;;;;;;3.63;1.92;;;;;;;;;;5303216;28;20031;-67
2022/03/07 14:16:33;;;;;;;3.15;1.77;;;;;;;;;;5302547;28;20016;-67
2022/03/07 14:19:04;;;;;;;3.25;2.20;;;;;;;;;;5303202;28;20103;-67
2022/03/07 14:21:36;;;;;;;4.68;1.73;;;;;;;;;;5302227;28;20027;-67
2022/03/07 14:24:08;;;;;;;4.43;2.40;;;;;;;;;;5303015;28;20100;-68
2022/03/07 14:26:39;;;;;;;3.60;2.05;;;;;;;;;;5303026;28;20550;-68
2022/03/07 14:29:12;;;;;;;4.05;1.65;;;;;;;;;;5302197;28;20111;-68
2022/03/07 14:31:44;;;;;;;3.85;1.90;;;;;;;;;;5302641;28;20020;-68
2022/03/07 14:34:15;;;;;;;5.15;2.70;;;;;;;;;;5303019;28;20023;-67
2022/03/07 14:36:46;;;;;;;3.86;1.70;;;;;;;;;;5301490;28;20016;-67
2022/03/07 14:39:17;;;;;;;3.92;1.90;;;;;;;;;;5302737;28;20020;-68
2022/03/07 14:41:48;;;;;;;5.30;2.32;;;;;;;;;;5302239;28;20042;-68
2022/03/07 14:44:20;;;;;;;2.92;1.96;;;;;;;;;;5301995;28;20099;-67
2022/03/07 14:46:51;;;;;;;6.62;2.02;;;;;;;;;;5302434;28;20019;-68
2022/03/07 14:49:22;;;;;;;4.30;1.83;;;;;;;;;;5299124;28;20152;-67
2022/03/07 14:51:53;;;;;;;3.15;1.80;;;;;;;;;;5302158;28;20016;-67
2022/03/07 14:54:25;;;;;;;3.33;1.85;;;;;;;;;;5302382;28;20073;-67
2022/03/07 14:56:56;;;;;;;3.38;1.75;;;;;;;;;;5298455;28;20008;-67
2022/03/07 14:59:27;;;;;;;2.97;2.30;;;;;;;;;;5313829;28;20035;-68
2022/03/07 15:01:58;;;;;;;4.13;1.95;;;;;;;;;;5322110;28;20020;-68
2022/03/07 15:04:29;;;;;;;4.80;2.63;;;;;;;;;;5321488;28;20032;-68